Terminal Aerodrome Forecast
Issued by NWS

Home | Current Version | Previous Version | Text Only | Print | Product List | Glossary On
Versions: 1 2 3 4 5 6 7 8 9 10 11 12 13 14 15 16 17 18
382
FTUS44 KLZK 230520
TAFBPK
TAF
KBPK 230520Z 2306/2406 19004KT P6SM OVC009
      TEMPO 2309/2313 2SM BR OVC004
     FM231600 16008KT P6SM FEW250
     FM231900 17010G17KT P6SM FEW250=

USA.gov is the U.S. government's official web portal to all federal, state and local government web resources and services.